Time;durP1;ratioP1;P1;durP2;ratioP2;P2;SDS_P1;SDS_P2;PMS_P1;PMS_P2;Temp;Humidity;BMP_temperature;BMP_pressure;BME280_temperature;BME280_humidity;BME280_pressure;Samples;Min_cycle;Max_cycle;Signal;HPM_P1;HPM_P2
2024/04/23 00:01:55;;;;;;;5.03;4.50;;;13.10;43.80;;;;;;5405844;26;20598;-59
2024/04/23 00:04:21;;;;;;;4.00;3.60;;;13.10;43.50;;;;;;5405792;26;20468;-58
2024/04/23 00:06:57;;;;;;;4.30;3.90;;;13.20;43.20;;;;;;5409722;26;20523;-58
2024/04/23 00:09:22;;;;;;;4.70;4.20;;;13.10;42.50;;;;;;5403973;26;20248;-59
2024/04/23 00:11:48;;;;;;;3.77;3.47;;;13.10;42.30;;;;;;5392807;26;20483;-56
2024/04/23 00:14:13;;;;;;;5.50;4.00;;;12.90;42.10;;;;;;5408419;26;20241;-58
2024/04/23 00:16:39;;;;;;;4.83;4.43;;;12.80;42.30;;;;;;5396655;26;20241;-57
2024/04/23 00:19:05;;;;;;;4.90;4.20;;;12.80;42.50;;;;;;5410041;26;20250;-56
2024/04/23 00:21:30;;;;;;;4.77;4.20;;;12.70;42.70;;;;;;5409892;26;20523;-58
2024/04/23 00:23:56;;;;;;;4.90;4.50;;;12.50;42.80;;;;;;5406580;26;20299;-58
2024/04/23 00:26:22;;;;;;;5.70;5.07;;;12.40;43.10;;;;;;5406252;26;20237;-59
2024/04/23 00:28:47;;;;;;;5.57;3.70;;;12.40;43.40;;;;;;5407018;26;20238;-57
2024/04/23 00:31:13;;;;;;;5.10;4.50;;;12.30;43.40;;;;;;5409000;26;20233;-58
2024/04/23 00:33:38;;;;;;;4.87;4.47;;;12.20;43.60;;;;;;5409667;26;21835;-58
2024/04/23 00:36:04;;;;;;;4.67;4.10;;;12.20;43.70;;;;;;5415526;26;20768;-58
2024/04/23 00:38:30;;;;;;;7.63;4.10;;;12.20;43.70;;;;;;5400626;26;20249;-57
2024/04/23 00:40:55;;;;;;;5.13;4.63;;;12.10;44.30;;;;;;5398421;26;20234;-56
2024/04/23 00:43:21;;;;;;;4.90;4.23;;;12.10;44.30;;;;;;5409831;26;20253;-58
2024/04/23 00:45:52;;;;;;;4.83;4.33;;;12.10;44.20;;;;;;5416302;26;20783;-56
2024/04/23 00:48:19;;;;;;;4.67;4.27;;;12.10;44.10;;;;;;5402545;26;20301;-58
2024/04/23 00:50:45;;;;;;;4.67;4.17;;;11.90;43.90;;;;;;5406569;26;20513;-59
2024/04/23 00:53:13;;;;;;;4.77;4.10;;;11.90;43.80;;;;;;5403680;26;20477;-57
2024/04/23 00:55:39;;;;;;;5.30;3.90;;;11.80;44.30;;;;;;5417563;26;20479;-59
2024/04/23 00:58:05;;;;;;;4.77;4.27;;;11.80;44.30;;;;;;5400397;26;20468;-57
2024/04/23 01:00:31;;;;;;;4.80;4.30;;;11.80;44.40;;;;;;5396762;26;20468;-58
2024/04/23 01:02:57;;;;;;;4.53;4.13;;;11.80;44.40;;;;;;5414627;26;20547;-59
2024/04/23 01:05:23;;;;;;;6.10;4.70;;;11.70;44.20;;;;;;5415370;26;20912;-57
2024/04/23 01:07:49;;;;;;;4.73;4.17;;;11.70;44.20;;;;;;5416544;26;20475;-57
2024/04/23 01:10:15;;;;;;;5.67;4.80;;;11.60;44.20;;;;;;5413721;26;20234;-57
2024/04/23 01:12:41;;;;;;;4.40;4.00;;;11.50;44.40;;;;;;5400018;26;20292;-58
2024/04/23 01:15:09;;;;;;;5.03;4.27;;;11.30;44.50;;;;;;5404080;26;21034;-59
2024/04/23 01:17:39;;;;;;;5.80;4.40;;;11.20;44.60;;;;;;5403632;26;20587;-59
2024/04/23 01:20:08;;;;;;;4.47;4.07;;;11.10;44.90;;;;;;5404872;26;20479;-58
2024/04/23 01:22:43;;;;;;;5.43;4.60;;;11.00;45.20;;;;;;5406635;26;20471;-58
2024/04/23 01:25:18;;;;;;;5.70;4.47;;;11.00;45.40;;;;;;5402796;26;20475;-58
2024/04/23 01:27:44;;;;;;;4.20;3.80;;;11.10;45.50;;;;;;5407391;26;20592;-59
2024/04/23 01:30:11;;;;;;;5.00;4.50;;;11.00;45.20;;;;;;5403048;26;20597;-59
2024/04/23 01:32:40;;;;;;;4.67;4.27;;;11.00;45.30;;;;;;5393337;26;20587;-57
2024/04/23 01:35:07;;;;;;;4.90;4.17;;;11.00;45.10;;;;;;5398583;26;20529;-58
2024/04/23 01:37:35;;;;;;;4.80;4.30;;;11.10;45.10;;;;;;5402248;26;20455;-59
2024/04/23 01:40:03;;;;;;;4.77;4.27;;;11.10;44.90;;;;;;5398598;26;20478;-59
2024/04/23 01:42:30;;;;;;;5.00;4.40;;;11.20;44.70;;;;;;5410593;26;20471;-56
2024/04/23 01:44:58;;;;;;;4.23;3.83;;;11.20;44.60;;;;;;5401826;26;20521;-58
2024/04/23 01:47:24;;;;;;;6.20;5.30;;;11.20;44.50;;;;;;5403185;26;21126;-56
2024/04/23 01:49:51;;;;;;;4.93;4.50;;;11.20;44.50;;;;;;5408692;26;20467;-58
2024/04/23 01:52:16;;;;;;;5.43;4.90;;;11.20;44.60;;;;;;5406030;26;20245;-56
2024/04/23 01:54:42;;;;;;;4.73;4.33;;;11.20;44.60;;;;;;5405021;26;20471;-57
2024/04/23 01:57:08;;;;;;;5.53;4.60;;;11.20;44.70;;;;;;5405381;26;20292;-58
2024/04/23 01:59:40;;;;;;;5.37;4.80;;;11.10;44.80;;;;;;5406359;26;20930;-55
2024/04/23 02:02:06;;;;;;;6.40;4.57;;;11.10;44.90;;;;;;5399576;26;20492;-56
2024/04/23 02:04:32;;;;;;;5.53;4.93;;;11.10;45.50;;;;;;5396432;26;20894;-59
2024/04/23 02:06:58;;;;;;;5.87;4.60;;;11.00;45.60;;;;;;5402102;26;20574;-57
2024/04/23 02:09:24;;;;;;;6.93;5.93;;;11.00;45.40;;;;;;5402435;26;20463;-58
2024/04/23 02:11:58;;;;;;;11.67;6.33;;;11.00;45.30;;;;;;5408839;26;20288;-59
2024/04/23 02:14:24;;;;;;;16.03;8.40;;;11.00;45.10;;;;;;5395475;26;20237;-56
2024/04/23 02:16:50;;;;;;;9.83;6.27;;;10.90;44.90;;;;;;5402174;26;20471;-57
2024/04/23 02:19:15;;;;;;;10.50;6.50;;;10.70;45.00;;;;;;5403496;26;20254;-58
2024/04/23 02:21:41;;;;;;;8.30;6.37;;;10.50;45.30;;;;;;5390619;26;20241;-57
2024/04/23 02:24:06;;;;;;;5.60;4.60;;;10.30;45.80;;;;;;5397624;26;20242;-57
2024/04/23 02:26:32;;;;;;;7.57;5.40;;;10.10;46.30;;;;;;5403697;26;20233;-57
2024/04/23 02:28:57;;;;;;;7.90;5.80;;;9.90;47.30;;;;;;5402659;26;20287;-58
2024/04/23 02:31:23;;;;;;;7.47;4.93;;;9.80;47.70;;;;;;5398693;26;20300;-56
2024/04/23 02:33:48;;;;;;;7.50;5.53;;;9.70;47.90;;;;;;5402362;26;20350;-57
2024/04/23 02:36:14;;;;;;;7.40;4.53;;;9.50;48.20;;;;;;5409794;26;20275;-57
2024/04/23 02:38:39;;;;;;;5.40;4.87;;;9.40;48.40;;;;;;5412738;26;20233;-57
2024/04/23 02:41:05;;;;;;;6.13;4.57;;;9.30;48.90;;;;;;5401015;26;20588;-57
2024/04/23 02:43:30;;;;;;;4.83;4.00;;;9.20;49.20;;;;;;5385275;26;20289;-58
2024/04/23 02:45:56;;;;;;;5.23;4.73;;;9.00;49.40;;;;;;5384237;26;20281;-56
2024/04/23 02:48:21;;;;;;;4.17;3.80;;;8.90;49.40;;;;;;5397565;26;20237;-58
2024/04/23 02:50:47;;;;;;;5.27;4.50;;;8.80;49.60;;;;;;5393727;26;20304;-58
2024/04/23 02:53:13;;;;;;;5.23;3.90;;;8.80;49.90;;;;;;5398312;26;20276;-57
2024/04/23 02:55:38;;;;;;;4.70;4.20;;;8.70;50.10;;;;;;5397320;26;20998;-59
2024/04/23 02:58:04;;;;;;;3.83;3.43;;;8.60;50.20;;;;;;5401740;26;20783;-56
2024/04/23 03:00:29;;;;;;;4.53;4.10;;;8.50;50.10;;;;;;5413574;26;20275;-56
2024/04/23 03:02:55;;;;;;;4.80;4.40;;;8.50;50.00;;;;;;5400027;26;20237;-57
2024/04/23 03:05:21;;;;;;;5.27;3.97;;;8.50;50.10;;;;;;5393323;26;20311;-55
2024/04/23 03:07:47;;;;;;;7.03;4.17;;;8.40;50.00;;;;;;5402398;26;20473;-58
2024/04/23 03:10:12;;;;;;;5.10;4.00;;;8.30;50.00;;;;;;5409676;26;20229;-58
2024/04/23 03:12:38;;;;;;;4.77;4.27;;;8.30;50.10;;;;;;5388561;26;20251;-58
2024/04/23 03:15:04;;;;;;;5.53;5.03;;;8.20;50.30;;;;;;5399297;26;20272;-57
2024/04/23 03:17:30;;;;;;;7.20;4.03;;;8.10;50.50;;;;;;5397521;26;21017;-55
2024/04/23 03:19:56;;;;;;;4.37;3.97;;;8.10;50.70;;;;;;5398704;26;20786;-59
2024/04/23 03:22:22;;;;;;;5.43;4.83;;;8.00;50.80;;;;;;5397859;26;20484;-56
2024/04/23 03:24:47;;;;;;;5.10;4.60;;;7.90;51.00;;;;;;5400426;26;20283;-58
2024/04/23 03:27:13;;;;;;;4.30;3.90;;;7.90;51.20;;;;;;5392166;26;20297;-57
2024/04/23 03:29:38;;;;;;;5.30;4.63;;;7.90;51.60;;;;;;5383991;26;20573;-57
2024/04/23 03:32:04;;;;;;;5.63;5.13;;;7.80;51.90;;;;;;5403001;26;20243;-57
2024/04/23 03:34:31;;;;;;;6.13;5.00;;;7.90;52.50;;;;;;5401053;26;20312;-58
2024/04/23 03:36:57;;;;;;;5.83;5.23;;;7.90;52.50;;;;;;5394898;26;20616;-57
2024/04/23 03:39:24;;;;;;;7.13;4.60;;;7.80;52.60;;;;;;5399826;26;20585;-57
2024/04/23 03:41:56;;;;;;;5.17;4.47;;;7.80;53.10;;;;;;5395669;26;20476;-55
2024/04/23 03:44:22;;;;;;;8.70;5.50;;;7.70;52.80;;;;;;5396492;26;20823;-57
2024/04/23 03:46:48;;;;;;;5.00;4.50;;;7.80;52.80;;;;;;5397513;26;20471;-59
2024/04/23 03:49:14;;;;;;;7.53;4.97;;;7.80;52.70;;;;;;5398669;26;20816;-59
2024/04/23 03:51:39;;;;;;;4.97;4.40;;;7.80;52.60;;;;;;5398076;26;20285;-58
2024/04/23 03:54:05;;;;;;;8.97;5.30;;;7.80;52.80;;;;;;5395530;26;20238;-56
2024/04/23 03:56:30;;;;;;;6.40;4.93;;;7.80;53.10;;;;;;5400229;26;20256;-59
2024/04/23 03:58:56;;;;;;;5.90;4.93;;;7.80;53.10;;;;;;5400805;26;20297;-55
2024/04/23 04:01:21;;;;;;;6.60;5.67;;;7.80;53.20;;;;;;5395421;26;20261;-57
2024/04/23 04:06:31;;;;;;;5.23;4.73;;;7.80;53.00;;;;;;5399476;26;20344;-58
2024/04/23 04:08:57;;;;;;;10.07;5.17;;;7.80;53.00;;;;;;5400984;26;21005;-58
2024/04/23 04:11:22;;;;;;;6.47;4.90;;;7.80;53.00;;;;;;5406030;26;20226;-57
2024/04/23 04:13:48;;;;;;;7.00;4.63;;;7.70;52.80;;;;;;5404883;26;20292;-58
2024/04/23 04:16:13;;;;;;;5.87;5.10;;;7.70;52.70;;;;;;5400704;26;20887;-58
2024/04/23 04:18:40;;;;;;;5.90;4.97;;;7.70;52.60;;;;;;5403502;26;20245;-56
2024/04/23 04:21:06;;;;;;;7.10;5.43;;;7.70;52.70;;;;;;5390092;26;20242;-57
2024/04/23 04:23:32;;;;;;;6.17;5.40;;;7.70;52.70;;;;;;5403468;26;20607;-59
2024/04/23 04:25:57;;;;;;;6.43;5.63;;;7.70;52.60;;;;;;5399796;26;20281;-56
2024/04/23 04:28:23;;;;;;;5.80;5.17;;;7.60;52.50;;;;;;5395612;26;21136;-54
2024/04/23 04:30:48;;;;;;;7.83;5.87;;;7.60;52.50;;;;;;5393655;26;20238;-58
2024/04/23 04:33:14;;;;;;;6.50;5.80;;;7.60;52.60;;;;;;5394044;26;20928;-57
2024/04/23 04:35:40;;;;;;;6.00;5.40;;;7.50;52.70;;;;;;5395416;26;20272;-58
2024/04/23 04:38:05;;;;;;;6.20;5.57;;;7.50;52.70;;;;;;5402444;26;20264;-57
2024/04/23 04:40:31;;;;;;;6.53;5.00;;;7.50;52.70;;;;;;5394709;26;20230;-56
2024/04/23 04:42:57;;;;;;;5.40;4.60;;;7.50;52.50;;;;;;5387690;26;20222;-57
2024/04/23 04:45:23;;;;;;;6.50;5.57;;;7.50;52.40;;;;;;5381987;26;20469;-57
2024/04/23 04:47:49;;;;;;;6.57;5.63;;;7.40;52.70;;;;;;5393550;26;20963;-57
2024/04/23 04:50:17;;;;;;;6.37;5.70;;;7.40;52.80;;;;;;5377708;26;20270;-58
2024/04/23 04:52:43;;;;;;;7.10;5.40;;;7.40;52.80;;;;;;5377825;26;20588;-57
2024/04/23 04:55:09;;;;;;;5.67;5.07;;;7.40;53.00;;;;;;5394694;26;20467;-56
2024/04/23 04:57:34;;;;;;;6.53;5.73;;;7.40;53.10;;;;;;5413867;26;20592;-57
2024/04/23 05:00:00;;;;;;;7.70;5.77;;;7.40;53.40;;;;;;5390712;26;20734;-58
2024/04/23 05:02:26;;;;;;;6.23;5.40;;;7.40;53.50;;;;;;5394175;26;20233;-56
2024/04/23 05:04:54;;;;;;;6.67;5.97;;;7.40;53.90;;;;;;5403653;26;20249;-57
2024/04/23 05:07:19;;;;;;;8.77;6.30;;;7.50;53.30;;;;;;5412667;26;20242;-56
2024/04/23 05:09:47;;;;;;;6.80;5.67;;;7.50;53.30;;;;;;5412815;26;21124;-57
2024/04/23 05:12:13;;;;;;;6.93;6.23;;;7.50;53.20;;;;;;5413738;26;20591;-59
2024/04/23 05:14:39;;;;;;;6.73;5.80;;;7.60;53.40;;;;;;5408243;26;20469;-57
2024/04/23 05:17:04;;;;;;;8.67;6.10;;;7.60;53.40;;;;;;5401604;26;20530;-57
2024/04/23 05:19:30;;;;;;;7.40;6.27;;;7.60;53.40;;;;;;5396854;26;20729;-57
2024/04/23 05:21:56;;;;;;;7.30;4.30;;;7.60;53.40;;;;;;5396742;26;20767;-56
2024/04/23 05:24:21;;;;;;;12.03;6.00;;;7.70;55.90;;;;;;5393538;26;20250;-58
2024/04/23 05:26:47;;;;;;;12.33;7.70;;;8.10;64.30;;;;;;5395982;26;20264;-57
2024/04/23 05:29:12;;;;;;;11.40;7.40;;;8.80;62.60;;;;;;5401716;26;20741;-59
2024/04/23 05:34:23;;;;;;;9.63;7.90;;;9.90;57.10;;;;;;5400752;26;20268;-56
2024/04/23 05:36:48;;;;;;;10.53;8.30;;;10.30;54.00;;;;;;5403800;26;20477;-55
2024/04/23 05:39:14;;;;;;;6.73;5.40;;;10.60;52.20;;;;;;5384698;26;20689;-56
2024/04/23 05:41:40;;;;;;;6.20;5.60;;;10.90;51.10;;;;;;5403708;26;20230;-53
2024/04/23 05:44:05;;;;;;;7.30;6.07;;;11.10;49.70;;;;;;5411053;26;20772;-56
2024/04/23 05:46:31;;;;;;;8.23;5.70;;;11.10;48.00;;;;;;5396033;26;20234;-58
2024/04/23 05:49:35;;;;;;;7.20;5.87;;;11.00;47.20;;;;;;5398911;26;20242;-55
2024/04/23 05:52:38;;;;;;;6.93;6.23;;;10.80;46.70;;;;;;5407530;26;20229;-56
2024/04/23 05:55:37;;;;;;;10.63;6.37;;;10.60;47.00;;;;;;5399070;26;20536;-55
2024/04/23 05:58:03;;;;;;;7.30;6.27;;;10.50;47.50;;;;;;5400793;26;20481;-55
2024/04/23 06:00:29;;;;;;;7.07;6.37;;;10.40;47.40;;;;;;5390101;26;21034;-58
2024/04/23 06:02:54;;;;;;;7.37;6.13;;;10.50;47.60;;;;;;5406679;26;20557;-56
2024/04/23 06:05:20;;;;;;;7.50;6.80;;;10.50;47.70;;;;;;5401396;26;20712;-57
2024/04/23 06:07:45;;;;;;;7.20;6.30;;;10.60;47.80;;;;;;5398899;26;20757;-55
2024/04/23 06:10:11;;;;;;;7.30;6.53;;;10.70;48.10;;;;;;5389376;26;20225;-56
2024/04/23 06:12:37;;;;;;;6.63;6.03;;;10.70;47.80;;;;;;5391133;26;20273;-58
2024/04/23 06:15:03;;;;;;;7.83;6.30;;;10.70;47.60;;;;;;5398618;26;20230;-54
2024/04/23 06:17:36;;;;;;;6.77;6.10;;;10.80;47.90;;;;;;5383013;26;21034;-56
2024/04/23 06:20:03;;;;;;;7.40;6.70;;;10.90;47.70;;;;;;5390624;26;20686;-54
2024/04/23 06:22:30;;;;;;;5.73;5.10;;;11.00;47.50;;;;;;5398016;26;20473;-58
2024/04/23 06:24:57;;;;;;;7.67;5.90;;;11.10;47.80;;;;;;5410588;26;20508;-58
2024/04/23 06:27:24;;;;;;;5.57;5.07;;;11.30;47.60;;;;;;5398527;26;20479;-55
2024/04/23 06:29:50;;;;;;;6.43;5.73;;;11.40;47.10;;;;;;5402775;26;20460;-57
2024/04/23 06:32:17;;;;;;;7.70;5.83;;;11.60;46.50;;;;;;5386519;26;20479;-56
2024/04/23 06:34:43;;;;;;;6.93;5.90;;;11.60;45.50;;;;;;5392564;26;20593;-55
2024/04/23 06:37:10;;;;;;;6.33;5.40;;;11.80;45.70;;;;;;5398666;26;20483;-57
2024/04/23 06:39:35;;;;;;;8.00;5.80;;;11.90;45.50;;;;;;5412781;26;20527;-57
2024/04/23 06:42:01;;;;;;;8.80;6.20;;;12.00;45.80;;;;;;5407010;26;20532;-55
2024/04/23 06:44:26;;;;;;;8.63;5.30;;;12.10;44.90;;;;;;5395689;26;20288;-56
2024/04/23 06:46:52;;;;;;;6.20;5.60;;;12.20;44.30;;;;;;5400334;26;20721;-54
2024/04/23 06:49:19;;;;;;;7.47;4.97;;;12.30;44.40;;;;;;5399423;26;20245;-58
2024/04/23 06:51:45;;;;;;;6.00;5.40;;;12.40;44.30;;;;;;5396988;26;20569;-56
2024/04/23 06:54:10;;;;;;;7.33;4.93;;;12.50;43.30;;;;;;5393331;26;20510;-54
2024/04/23 06:56:36;;;;;;;8.47;5.40;;;12.50;42.90;;;;;;5388589;26;20234;-56
2024/04/23 06:59:01;;;;;;;6.80;5.23;;;12.70;43.40;;;;;;5392732;26;20246;-57
2024/04/23 07:01:29;;;;;;;6.33;5.43;;;12.80;43.20;;;;;;5378836;26;20740;-57
2024/04/23 07:03:54;;;;;;;6.10;5.50;;;13.00;42.70;;;;;;5379205;26;20243;-57
2024/04/23 07:06:20;;;;;;;6.50;5.90;;;13.10;43.10;;;;;;5388756;26;20477;-58
2024/04/23 07:08:47;;;;;;;5.93;5.37;;;13.20;42.00;;;;;;5385604;26;20328;-58
2024/04/23 07:11:13;;;;;;;5.90;5.10;;;13.30;41.60;;;;;;5378291;26;20234;-58
2024/04/23 07:13:38;;;;;;;6.00;5.50;;;13.40;40.90;;;;;;5380999;26;20581;-57
2024/04/23 07:16:05;;;;;;;6.23;5.17;;;13.40;40.90;;;;;;5387091;26;20311;-58
2024/04/23 07:18:30;;;;;;;5.80;5.20;;;13.50;41.20;;;;;;5378704;26;20265;-58
2024/04/23 07:20:56;;;;;;;5.53;5.03;;;13.60;40.80;;;;;;5390306;26;20849;-55
2024/04/23 07:23:22;;;;;;;6.30;5.40;;;13.70;40.20;;;;;;5381221;26;20234;-55
2024/04/23 07:25:51;;;;;;;7.70;5.40;;;13.70;39.80;;;;;;5378477;26;20571;-58
2024/04/23 07:28:20;;;;;;;5.50;5.00;;;13.80;39.80;;;;;;5384039;26;20762;-56
2024/04/23 07:30:48;;;;;;;6.00;5.50;;;13.90;39.40;;;;;;5401775;26;20471;-57
2024/04/23 07:33:14;;;;;;;4.53;4.23;;;13.90;39.40;;;;;;5392339;26;21127;-56
2024/04/23 07:35:40;;;;;;;6.57;5.60;;;13.90;40.50;;;;;;5405640;26;20463;-57
2024/04/23 07:38:09;;;;;;;6.77;5.60;;;14.00;40.30;;;;;;5404750;26;20593;-58
2024/04/23 07:40:40;;;;;;;5.60;5.10;;;14.20;39.50;;;;;;5400355;26;20239;-58
2024/04/23 07:43:06;;;;;;;5.23;4.73;;;14.20;39.30;;;;;;5378526;26;20484;-58
2024/04/23 07:45:35;;;;;;;6.63;5.30;;;14.30;39.20;;;;;;5405266;26;21099;-58
2024/04/23 07:48:02;;;;;;;5.70;5.20;;;14.40;39.60;;;;;;5408032;26;20821;-58
2024/04/23 07:50:28;;;;;;;6.37;5.13;;;14.50;39.00;;;;;;5407623;26;20524;-57
2024/04/23 07:52:54;;;;;;;5.00;4.60;;;14.60;38.30;;;;;;5404278;26;20476;-58
2024/04/23 07:55:20;;;;;;;6.63;5.20;;;14.70;38.40;;;;;;5396621;26;20579;-58
2024/04/23 07:57:46;;;;;;;5.93;5.33;;;14.80;39.00;;;;;;5403552;26;20305;-58
2024/04/23 08:00:18;;;;;;;5.40;4.90;;;14.80;38.50;;;;;;5403388;26;20241;-59
2024/04/23 08:02:44;;;;;;;7.50;5.10;;;14.90;38.70;;;;;;5387559;26;20942;-59
2024/04/23 08:05:10;;;;;;;6.80;4.73;;;15.10;38.90;;;;;;5382935;26;20468;-60
2024/04/23 08:07:36;;;;;;;5.93;5.43;;;15.20;39.10;;;;;;5390979;26;21236;-58
2024/04/23 08:10:03;;;;;;;5.23;4.80;;;15.40;38.10;;;;;;5399061;26;20555;-58
2024/04/23 08:12:28;;;;;;;6.03;4.70;;;15.30;37.90;;;;;;5400545;26;20520;-55
2024/04/23 08:14:54;;;;;;;5.23;4.83;;;15.40;38.80;;;;;;5400584;26;20474;-58
2024/04/23 08:17:22;;;;;;;5.60;5.10;;;15.50;38.10;;;;;;5405400;26;20284;-57
2024/04/23 08:19:48;;;;;;;6.40;4.93;;;15.50;39.10;;;;;;5406268;26;20234;-58
2024/04/23 08:22:14;;;;;;;5.87;5.07;;;15.60;39.10;;;;;;5397569;26;21025;-60
2024/04/23 08:24:40;;;;;;;5.97;5.47;;;15.80;38.20;;;;;;5403326;26;20475;-58
2024/04/23 08:27:06;;;;;;;5.67;5.17;;;16.10;38.10;;;;;;5404458;26;20701;-59
2024/04/23 08:29:31;;;;;;;5.47;4.97;;;16.20;38.00;;;;;;5407465;26;20320;-59
2024/04/23 08:31:57;;;;;;;5.00;4.63;;;16.40;36.80;;;;;;5393433;26;20289;-60
2024/04/23 08:34:23;;;;;;;9.13;6.13;;;16.50;36.60;;;;;;5396885;26;20239;-59
2024/04/23 08:36:50;;;;;;;7.70;5.33;;;16.50;37.10;;;;;;5386059;26;20528;-57
2024/04/23 08:39:15;;;;;;;6.03;4.90;;;16.60;37.00;;;;;;5408902;26;20272;-59
2024/04/23 08:41:41;;;;;;;5.40;4.90;;;16.70;36.90;;;;;;5413845;26;20479;-59
2024/04/23 08:44:09;;;;;;;5.17;4.73;;;16.70;36.30;;;;;;5411629;26;20287;-60
2024/04/23 08:46:36;;;;;;;8.20;5.27;;;16.70;35.70;;;;;;5402533;26;20457;-58
2024/04/23 08:49:06;;;;;;;5.53;4.93;;;16.70;35.40;;;;;;5399456;26;20528;-60
2024/04/23 08:51:32;;;;;;;5.60;5.20;;;16.70;36.80;;;;;;5396681;26;20523;-59
2024/04/23 08:53:58;;;;;;;5.70;5.20;;;16.70;35.80;;;;;;5390654;26;20528;-59
2024/04/23 08:56:29;;;;;;;6.27;5.27;;;16.70;36.10;;;;;;5404661;26;22429;-58
2024/04/23 08:58:56;;;;;;;5.40;4.90;;;16.50;36.40;;;;;;5406826;26;20475;-60
2024/04/23 09:01:30;;;;;;;5.60;5.10;;;16.70;37.50;;;;;;5404786;26;20592;-60
2024/04/23 09:03:57;;;;;;;7.90;5.07;;;16.80;36.00;;;;;;5395242;26;20471;-60
2024/04/23 09:06:24;;;;;;;5.03;4.63;;;16.90;35.30;;;;;;5385674;26;21011;-59
2024/04/23 09:08:50;;;;;;;4.90;4.50;;;16.90;36.10;;;;;;5397544;26;20471;-59
2024/04/23 09:11:16;;;;;;;5.33;4.90;;;17.10;35.30;;;;;;5392293;26;20476;-60
2024/04/23 09:13:42;;;;;;;5.60;4.40;;;17.40;35.80;;;;;;5408968;26;20523;-60
2024/04/23 09:16:08;;;;;;;4.67;4.27;;;17.60;35.40;;;;;;5400000;26;20526;-60
2024/04/23 09:18:33;;;;;;;5.60;5.10;;;17.70;33.90;;;;;;5405823;26;20243;-59
2024/04/23 09:21:02;;;;;;;6.13;5.53;;;17.80;33.40;;;;;;5405238;26;20250;-59
2024/04/23 09:23:28;;;;;;;5.03;4.53;;;17.90;33.30;;;;;;5390639;26;20230;-59
2024/04/23 09:25:54;;;;;;;5.83;5.23;;;17.90;32.50;;;;;;5385842;26;20591;-59
2024/04/23 09:28:21;;;;;;;5.30;4.20;;;17.90;31.70;;;;;;5397700;26;20544;-59
2024/04/23 09:30:49;;;;;;;6.00;5.40;;;18.10;32.60;;;;;;5404090;26;20583;-59
2024/04/23 09:33:23;;;;;;;5.20;4.70;;;18.40;33.10;;;;;;5392635;26;20517;-58
2024/04/23 09:36:12;;;;;;;8.20;4.83;;;18.30;30.40;;;;;;5389850;26;20475;-60
2024/04/23 09:38:39;;;;;;;3.93;3.63;;;18.00;29.90;;;;;;5409536;26;20837;-59
2024/04/23 09:41:09;;;;;;;4.80;4.40;;;18.00;30.60;;;;;;5408078;26;20486;-57
2024/04/23 09:43:38;;;;;;;4.87;4.40;;;17.80;30.00;;;;;;5403407;26;20475;-58
2024/04/23 09:46:05;;;;;;;4.97;4.57;;;17.90;31.60;;;;;;5392763;26;20467;-58
2024/04/23 09:48:34;;;;;;;5.10;4.70;;;17.90;30.30;;;;;;5403546;26;20479;-58
2024/04/23 09:51:05;;;;;;;5.87;5.37;;;17.60;29.50;;;;;;5406008;26;20630;-61
2024/04/23 09:53:35;;;;;;;4.70;4.30;;;17.60;30.10;;;;;;5395491;26;20483;-60
2024/04/23 09:56:02;;;;;;;4.67;4.00;;;17.30;29.80;;;;;;5401189;26;20479;-58
2024/04/23 09:58:32;;;;;;;4.43;4.03;;;17.40;32.70;;;;;;5394632;26;20467;-60
2024/04/23 10:00:59;;;;;;;4.83;4.43;;;17.90;33.40;;;;;;5400751;26;20572;-58
2024/04/23 10:03:26;;;;;;;4.57;4.17;;;18.30;31.50;;;;;;5396358;26;20456;-59
2024/04/23 10:05:54;;;;;;;4.70;4.30;;;18.60;32.30;;;;;;5405958;26;20496;-60
2024/04/23 10:08:34;;;;;;;5.20;4.70;;;18.60;30.30;;;;;;5402223;26;20585;-59
2024/04/23 10:11:01;;;;;;;4.83;4.43;;;18.50;30.80;;;;;;5379268;26;20536;-59
2024/04/23 10:13:33;;;;;;;5.73;4.20;;;18.80;29.30;;;;;;5396830;26;20527;-59
2024/04/23 10:16:46;;;;;;;5.63;4.53;;;19.00;30.70;;;;;;5398178;26;20463;-60
2024/04/23 10:19:14;;;;;;;4.80;4.40;;;19.30;29.50;;;;;;5380757;26;20896;-59
2024/04/23 10:21:42;;;;;;;4.70;4.20;;;19.50;30.00;;;;;;5396705;26;20585;-60
2024/04/23 10:24:12;;;;;;;4.90;4.30;;;19.60;30.50;;;;;;5385906;26;21078;-58
2024/04/23 10:26:45;;;;;;;4.40;4.00;;;19.70;28.70;;;;;;5406765;26;20510;-58
2024/04/23 10:29:13;;;;;;;6.53;5.43;;;19.80;29.40;;;;;;5390343;26;20534;-59
2024/04/23 10:31:41;;;;;;;5.57;5.07;;;19.80;29.30;;;;;;5390318;26;20539;-58
2024/04/23 10:34:08;;;;;;;5.77;5.10;;;19.80;28.50;;;;;;5405184;26;20460;-60
2024/04/23 10:36:40;;;;;;;4.73;4.33;;;19.80;28.80;;;;;;5395141;26;20467;-59
2024/04/23 10:39:06;;;;;;;4.43;4.03;;;19.80;29.90;;;;;;5402984;26;20483;-59
2024/04/23 10:41:37;;;;;;;5.17;4.70;;;19.90;29.30;;;;;;5397530;26;20712;-59
2024/04/23 10:44:08;;;;;;;5.10;4.70;;;20.00;29.80;;;;;;5397952;26;20945;-60
2024/04/23 10:46:34;;;;;;;5.30;4.80;;;20.10;28.30;;;;;;5397190;26;20531;-58
2024/04/23 10:49:15;;;;;;;5.10;4.63;;;20.00;28.30;;;;;;5399863;26;20475;-59
2024/04/23 10:51:46;;;;;;;4.30;4.00;;;20.10;28.40;;;;;;5399765;26;21082;-59
2024/04/23 10:54:19;;;;;;;5.13;4.53;;;20.20;29.20;;;;;;5396667;26;20850;-59
2024/04/23 10:56:59;;;;;;;4.70;4.30;;;20.10;28.60;;;;;;5388291;26;20480;-60
2024/04/23 10:59:32;;;;;;;5.50;4.80;;;20.00;27.70;;;;;;5399624;26;20459;-59
2024/04/23 11:02:05;;;;;;;6.37;5.20;;;19.90;27.10;;;;;;5403883;26;20869;-60
2024/04/23 11:04:39;;;;;;;5.20;4.80;;;19.90;27.80;;;;;;5393320;26;20472;-60
2024/04/23 11:07:06;;;;;;;4.57;4.17;;;20.00;27.40;;;;;;5391297;26;21007;-61
2024/04/23 11:09:43;;;;;;;4.50;4.20;;;20.00;27.60;;;;;;5388196;26;20477;-61
2024/04/23 11:12:24;;;;;;;4.10;3.80;;;19.90;28.60;;;;;;5399209;26;20468;-58
2024/04/23 11:14:51;;;;;;;4.90;4.03;;;20.10;28.60;;;;;;5398425;26;20946;-61
2024/04/23 11:17:17;;;;;;;4.00;3.67;;;20.50;27.10;;;;;;5392891;26;20524;-60
2024/04/23 11:19:43;;;;;;;4.50;4.10;;;20.80;28.30;;;;;;5394383;26;20471;-59
2024/04/23 11:22:13;;;;;;;4.13;3.83;;;21.00;28.20;;;;;;5396691;26;20536;-60
2024/04/23 11:24:43;;;;;;;4.53;4.13;;;21.10;28.80;;;;;;5399382;26;20494;-61
2024/04/23 11:27:10;;;;;;;4.60;3.73;;;21.20;28.30;;;;;;5410783;26;20539;-62
2024/04/23 11:29:39;;;;;;;3.50;3.20;;;21.30;27.20;;;;;;5396528;26;20525;-58
2024/04/23 11:32:07;;;;;;;4.60;4.20;;;21.30;27.50;;;;;;5392905;26;21126;-60
2024/04/23 11:34:33;;;;;;;4.77;4.37;;;21.20;26.40;;;;;;5384774;26;20529;-63
2024/04/23 11:36:59;;;;;;;6.50;4.33;;;20.80;26.70;;;;;;5403343;26;20580;-61
2024/04/23 11:39:28;;;;;;;4.83;3.87;;;20.60;27.80;;;;;;5392868;26;20495;-61
2024/04/23 11:41:56;;;;;;;4.33;3.93;;;20.60;27.70;;;;;;5391456;26;20243;-61
2024/04/23 11:44:22;;;;;;;4.03;3.63;;;20.30;27.90;;;;;;5399786;26;20635;-58
2024/04/23 11:46:53;;;;;;;3.80;3.50;;;20.20;28.30;;;;;;5404746;26;20482;-61
2024/04/23 11:49:20;;;;;;;4.40;3.93;;;20.00;28.40;;;;;;5396338;26;20241;-59
2024/04/23 11:51:49;;;;;;;4.50;4.10;;;20.20;29.40;;;;;;5410949;26;20873;-60
2024/04/23 11:54:19;;;;;;;4.97;4.30;;;20.30;28.20;;;;;;5396535;26;20537;-60
2024/04/23 11:56:44;;;;;;;4.37;3.97;;;20.10;28.40;;;;;;5386452;26;20477;-59
2024/04/23 11:59:18;;;;;;;5.83;4.17;;;20.10;27.80;;;;;;5401875;26;20538;-65
2024/04/23 12:01:44;;;;;;;4.50;3.93;;;20.10;28.60;;;;;;5404434;26;20833;-60
2024/04/23 12:04:11;;;;;;;4.67;4.27;;;20.10;27.80;;;;;;5401499;26;20467;-64
2024/04/23 12:06:39;;;;;;;4.20;3.80;;;19.80;26.90;;;;;;5394708;26;20254;-60
2024/04/23 12:09:06;;;;;;;4.30;3.97;;;19.80;27.60;;;;;;5407792;26;20568;-62
2024/04/23 12:11:32;;;;;;;4.47;3.90;;;19.90;28.30;;;;;;5405005;26;21014;-59
2024/04/23 12:13:58;;;;;;;4.40;3.97;;;19.80;28.40;;;;;;5404152;26;20463;-60
2024/04/23 12:16:24;;;;;;;4.10;3.80;;;19.90;28.80;;;;;;5389445;26;20589;-59
2024/04/23 12:18:50;;;;;;;4.37;3.97;;;19.90;28.70;;;;;;5405247;26;20467;-59
2024/04/23 12:21:16;;;;;;;4.27;3.97;;;19.70;28.80;;;;;;5398490;26;20241;-62
2024/04/23 12:23:42;;;;;;;5.10;4.60;;;19.50;27.70;;;;;;5402889;26;20459;-62
2024/04/23 12:26:12;;;;;;;3.90;3.60;;;19.00;27.70;;;;;;5400776;26;20614;-62
2024/04/23 12:28:40;;;;;;;6.83;4.40;;;19.10;28.70;;;;;;5402556;26;20619;-61
2024/04/23 12:31:05;;;;;;;5.17;4.67;;;19.30;30.00;;;;;;5405110;26;20556;-62
2024/04/23 12:33:31;;;;;;;4.70;4.30;;;19.40;29.00;;;;;;5405019;26;21018;-61
2024/04/23 12:36:08;;;;;;;4.67;4.23;;;19.10;29.20;;;;;;5399322;26;20242;-61
2024/04/23 12:38:47;;;;;;;4.50;4.20;;;19.00;29.40;;;;;;5399589;26;20245;-61
2024/04/23 12:41:25;;;;;;;4.20;3.90;;;19.10;29.70;;;;;;5405310;26;20523;-58
2024/04/23 12:43:51;;;;;;;4.50;3.93;;;19.20;29.50;;;;;;5403759;26;20530;-61
2024/04/23 12:46:18;;;;;;;3.70;3.40;;;19.30;29.60;;;;;;5400447;26;20484;-59
2024/04/23 12:48:45;;;;;;;5.10;4.60;;;19.50;28.90;;;;;;5400538;26;20467;-62
2024/04/23 12:51:11;;;;;;;4.20;3.90;;;19.60;27.10;;;;;;5399834;26;20532;-64
2024/04/23 12:53:37;;;;;;;5.37;3.93;;;19.70;27.90;;;;;;5396709;26;21004;-58
2024/04/23 12:56:02;;;;;;;4.47;4.17;;;19.70;28.50;;;;;;5403125;26;20241;-61